Time;durP1;ratioP1;P1;durP2;ratioP2;P2;SDS_P1;SDS_P2;PMS_P1;PMS_P2;Temp;Humidity;BMP_temperature;BMP_pressure;BME280_temperature;BME280_humidity;BME280_pressure;Samples;Min_cycle;Max_cycle;Signal;HPM_P1;HPM_P2
2022/09/26 00:01:27;;;;;;;12.70;11.40;;;;;;;21.43;61.37;100440.28;5111822;28;20044;-77
2022/09/26 00:03:58;;;;;;;13.65;12.27;;;;;;;21.43;61.35;100432.19;5011112;28;20050;-77
2022/09/26 00:06:25;;;;;;;13.05;11.85;;;;;;;21.42;61.36;100435.91;5010830;28;20053;-77
2022/09/26 00:08:52;;;;;;;12.63;11.43;;;;;;;21.43;61.38;100433.06;5010524;28;20057;-77
2022/09/26 00:11:24;;;;;;;13.75;11.80;;;;;;;21.43;61.35;100434.91;5011050;28;20489;-77
2022/09/26 00:13:54;;;;;;;12.93;11.57;;;;;;;21.42;61.32;100431.34;5011002;28;20053;-77
2022/09/26 00:16:22;;;;;;;12.32;11.23;;;;;;;21.42;61.24;100417.06;5010769;28;20057;-77
2022/09/26 00:18:51;;;;;;;13.45;12.15;;;;;;;21.43;61.31;100416.03;5010473;28;20041;-77
2022/09/26 00:21:19;;;;;;;13.23;11.88;;;;;;;21.43;61.34;100418.72;5011122;28;20046;-77
2022/09/26 00:23:47;;;;;;;12.93;11.63;;;;;;;21.42;61.36;100417.06;5010494;28;20046;-77
2022/09/26 00:26:16;;;;;;;13.52;12.23;;;;;;;21.42;61.28;100423.28;5010383;28;20045;-77
2022/09/26 00:28:43;;;;;;;13.18;11.88;;;;;;;21.42;61.26;100417.06;5010092;28;20046;-76
2022/09/26 00:31:17;;;;;;;13.85;12.55;;;;;;;21.43;61.28;100416.03;5005559;28;20046;-77
2022/09/26 00:33:44;;;;;;;13.45;12.05;;;;;;;21.42;61.21;100412.50;5009892;28;20054;-77
2022/09/26 00:36:12;;;;;;;13.77;12.48;;;;;;;21.42;61.23;100415.19;5008558;28;20057;-77
2022/09/26 00:38:40;;;;;;;12.63;11.43;;;;;;;21.42;61.20;100412.50;5008665;28;20046;-77
2022/09/26 00:41:07;;;;;;;13.73;12.43;;;;;;;21.42;61.25;100408.97;5060416;28;20059;-76
2022/09/26 00:43:38;;;;;;;12.70;11.55;;;;;;;21.42;61.33;100414.34;5111809;28;20048;-76
2022/09/26 00:46:30;;;;;;;12.95;11.73;;;;;;;21.41;61.20;100396.53;5112535;28;20081;-76
2022/09/26 00:49:23;;;;;;;14.00;12.60;;;;;;;21.41;61.22;100400.06;5113406;28;20048;-76
2022/09/26 00:51:55;;;;;;;13.27;12.02;;;;;;;21.41;61.24;100394.66;5034227;28;20060;-77
2022/09/26 00:54:24;;;;;;;13.13;11.83;;;;;;;21.42;61.21;100392.81;5017097;28;20092;-77
2022/09/26 00:56:58;;;;;;;13.85;12.43;;;;;;;21.42;61.08;100384.75;5034516;28;20057;-77
2022/09/26 00:59:40;;;;;;;13.27;11.98;;;;;;;21.42;61.08;100387.44;5034569;28;20045;-77
2022/09/26 01:02:08;;;;;;;13.40;12.10;;;;;;;21.41;60.96;100389.28;5034516;28;20053;-77
2022/09/26 01:04:40;;;;;;;12.98;11.65;;;;;;;21.42;61.13;100390.97;5034152;28;20065;-77
2022/09/26 01:07:15;;;;;;;13.23;12.02;;;;;;;21.42;61.13;100390.13;5017397;28;20050;-76
2022/09/26 01:09:42;;;;;;;13.60;12.32;;;;;;;21.42;61.09;100395.50;5034037;28;20065;-76
2022/09/26 01:12:11;;;;;;;12.85;11.65;;;;;;;21.41;61.08;100394.66;5017523;28;20049;-77
2022/09/26 01:14:40;;;;;;;13.02;11.73;;;;;;;21.42;61.15;100398.19;5017086;28;20160;-76
2022/09/26 01:17:09;;;;;;;13.25;11.95;;;;;;;21.41;61.09;100394.66;5033845;28;20490;-77
2022/09/26 01:20:04;;;;;;;15.35;13.35;;;;;;;21.41;61.15;100381.19;5017702;28;20073;-77
2022/09/26 01:23:01;;;;;;;13.55;12.15;;;;;;;21.41;61.04;100383.91;5034357;28;20065;-77
2022/09/26 01:26:27;;;;;;;13.20;11.95;;;;;;;21.42;60.95;100377.50;5017167;28;20049;-77
2022/09/26 01:29:38;;;;;;;13.02;11.73;;;;;;;21.41;60.98;100374.97;4969341;28;20051;-77
2022/09/26 01:35:21;;;;;;;13.70;12.40;;;;;;;21.42;60.93;100376.66;4898157;28;20060;-77
2022/09/26 01:38:09;;;;;;;13.13;11.82;;;;;;;21.41;60.87;100381.19;4914662;29;20523;-77
2022/09/26 01:40:49;;;;;;;13.95;12.50;;;;;;;21.40;60.71;100374.13;4898723;29;20060;-77
2022/09/26 01:43:29;;;;;;;12.10;11.00;;;;;;;21.41;60.87;100372.28;4898498;29;20409;-76
2022/09/26 01:46:32;;;;;;;14.27;12.52;;;;;;;21.41;60.82;100373.13;4899247;29;20059;-77
2022/09/26 01:49:02;;;;;;;12.43;11.17;;;;;;;21.41;60.82;100372.28;4898781;29;20044;-77
2022/09/26 01:51:39;;;;;;;12.55;11.35;;;;;;;21.41;60.66;100373.13;4898811;28;20306;-76
2022/09/26 01:54:20;;;;;;;13.30;12.00;;;;;;;21.41;60.77;100369.59;4929697;28;20050;-77
2022/09/26 01:56:50;;;;;;;13.00;11.70;;;;;;;21.41;60.77;100365.03;4996358;28;20084;-77
2022/09/26 01:59:55;;;;;;;12.50;11.25;;;;;;;21.40;60.82;100363.38;5008619;28;20048;-77
2022/09/26 02:02:28;;;;;;;13.45;12.15;;;;;;;21.41;60.88;100364.19;5010519;28;20055;-77
2022/09/26 02:05:01;;;;;;;12.80;11.65;;;;;;;21.40;60.84;100354.44;4936801;28;20062;-77
2022/09/26 02:07:58;;;;;;;12.13;10.90;;;;;;;21.41;60.82;100348.03;4951893;29;20495;-76
2022/09/26 02:10:42;;;;;;;12.75;11.65;;;;;;;21.40;60.68;100347.19;5010844;28;20066;-76
2022/09/26 02:13:19;;;;;;;13.63;12.23;;;;;;;21.41;60.77;100345.34;5012624;28;20061;-77
2022/09/26 02:15:54;;;;;;;12.65;11.45;;;;;;;21.41;60.63;100345.34;5012515;28;20054;-77
2022/09/26 02:18:37;;;;;;;14.02;12.60;;;;;;;21.41;60.72;100345.34;5010745;28;20041;-77
2022/09/26 02:21:17;;;;;;;13.52;12.23;;;;;;;21.41;60.71;100340.81;5010332;28;20057;-77
2022/09/26 02:23:50;;;;;;;13.27;11.98;;;;;;;21.41;60.67;100331.88;5010576;28;20050;-77
2022/09/26 02:26:17;;;;;;;12.90;11.60;;;;;;;21.41;60.59;100332.72;5011922;28;20535;-77
2022/09/26 02:28:45;;;;;;;12.18;10.95;;;;;;;21.41;60.70;100332.72;5010799;28;20508;-77
2022/09/26 02:31:20;;;;;;;12.40;11.25;;;;;;;21.41;60.68;100334.59;5010155;28;20413;-76
2022/09/26 02:33:49;;;;;;;13.25;12.05;;;;;;;21.41;60.58;100342.66;5000257;28;20389;-77
2022/09/26 02:36:21;;;;;;;12.23;10.95;;;;;;;21.41;60.57;100346.19;4990427;28;20066;-77
2022/09/26 02:38:48;;;;;;;10.60;9.60;;;;;;;21.40;60.62;100349.91;4990625;28;20061;-77
2022/09/26 02:41:49;;;;;;;12.13;10.93;;;;;;;21.41;60.59;100353.44;5042898;28;20060;-77
2022/09/26 02:44:42;;;;;;;13.35;12.15;;;;;;;21.41;60.59;100342.66;5034901;28;20049;-76
2022/09/26 02:47:47;;;;;;;12.50;11.20;;;;;;;21.41;60.48;100345.34;5034788;28;20163;-76
2022/09/26 02:50:41;;;;;;;13.13;11.88;;;;;;;21.40;60.59;100339.13;5035657;28;20049;-76
2022/09/26 02:53:26;;;;;;;12.98;11.77;;;;;;;21.40;60.49;100332.91;5052094;28;20057;-77
2022/09/26 02:56:10;;;;;;;13.95;12.70;;;;;;;21.40;60.52;100346.38;5035244;28;20053;-77
2022/09/26 02:59:00;;;;;;;13.43;11.95;;;;;;;21.40;60.49;100335.59;5034740;28;20057;-77
2022/09/26 03:01:41;;;;;;;11.50;10.40;;;;;;;21.39;60.36;100341.97;5034788;28;20052;-76
2022/09/26 03:04:21;;;;;;;13.43;12.13;;;;;;;21.40;60.43;100336.44;5052524;28;20044;-76
2022/09/26 03:06:54;;;;;;;12.77;11.55;;;;;;;21.40;60.38;100330.22;5034262;28;20092;-77
2022/09/26 03:09:24;;;;;;;12.82;11.63;;;;;;;21.39;60.37;100333.88;5051001;28;20045;-76
2022/09/26 03:11:53;;;;;;;11.50;10.43;;;;;;;21.40;60.35;100333.75;5051612;28;20508;-77
2022/09/26 03:14:21;;;;;;;11.95;10.85;;;;;;;21.40;60.35;100327.50;5034065;28;20128;-77
2022/09/26 03:16:50;;;;;;;12.77;11.57;;;;;;;21.39;60.27;100321.28;5051470;28;20072;-76
2022/09/26 03:19:49;;;;;;;12.90;11.65;;;;;;;21.39;60.37;100321.28;4999565;28;20069;-78
2022/09/26 03:22:17;;;;;;;12.07;10.93;;;;;;;21.40;60.29;100327.50;4990343;28;20057;-77
2022/09/26 03:24:45;;;;;;;12.23;10.45;;;;;;;21.40;60.36;100319.44;4990752;28;20058;-77
2022/09/26 03:27:15;;;;;;;11.48;10.30;;;;;;;21.40;60.34;100312.19;4989859;28;20055;-77
2022/09/26 03:29:45;;;;;;;12.50;11.30;;;;;;;21.39;60.40;100315.91;4990209;28;20176;-77
2022/09/26 03:32:18;;;;;;;11.57;10.48;;;;;;;21.41;60.43;100315.72;4990030;28;20058;-77
2022/09/26 03:34:45;;;;;;;12.07;10.30;;;;;;;21.40;60.48;100311.34;5001729;28;20405;-77
2022/09/26 03:37:15;;;;;;;13.35;11.23;;;;;;;21.39;60.42;100305.13;5008770;28;20429;-77
2022/09/26 03:39:43;;;;;;;12.43;10.63;;;;;;;21.39;60.42;100298.88;5009232;28;20053;-77
2022/09/26 03:42:23;;;;;;;11.95;10.85;;;;;;;21.41;60.34;100313.03;5008882;28;20061;-78
2022/09/26 03:44:52;;;;;;;10.80;9.73;;;;;;;21.40;60.35;100309.50;5010016;28;20127;-77
2022/09/26 03:47:40;;;;;;;12.20;10.65;;;;;;;21.40;60.30;100303.28;4969993;28;20050;-77
2022/09/26 03:50:08;;;;;;;11.57;10.48;;;;;;;21.39;60.30;100305.13;4954977;28;20043;-77
2022/09/26 03:52:35;;;;;;;12.23;10.70;;;;;;;21.40;60.28;100305.97;4971162;28;20502;-77
2022/09/26 03:55:04;;;;;;;12.25;11.05;;;;;;;21.39;60.15;100309.63;4962517;28;20055;-77
2022/09/26 03:57:31;;;;;;;11.07;10.07;;;;;;;21.39;60.28;100291.66;4953400;28;20055;-77
2022/09/26 04:00:11;;;;;;;11.82;10.63;;;;;;;21.39;60.27;100275.50;4953349;28;20506;-77
2022/09/26 04:02:47;;;;;;;11.93;10.82;;;;;;;21.40;60.28;100292.50;4965085;28;20387;-77
2022/09/26 04:05:31;;;;;;;11.20;10.10;;;;;;;21.39;60.32;100286.28;4937808;28;20058;-77
2022/09/26 04:08:04;;;;;;;11.85;10.60;;;;;;;21.40;60.18;100271.81;4965830;28;20047;-77
2022/09/26 04:10:32;;;;;;;11.02;9.93;;;;;;;21.40;60.15;100276.34;4934949;28;20043;-77
2022/09/26 04:13:00;;;;;;;12.00;10.55;;;;;;;21.39;60.09;100271.94;4952233;28;20422;-77
2022/09/26 04:15:28;;;;;;;11.30;10.20;;;;;;;21.38;60.11;100268.41;4950073;29;20054;-77
2022/09/26 04:18:05;;;;;;;11.35;10.25;;;;;;;21.39;60.11;100270.13;4965922;28;20074;-77
2022/09/26 04:20:33;;;;;;;11.70;10.60;;;;;;;21.39;60.00;100263.88;4935081;28;20055;-77
2022/09/26 04:23:00;;;;;;;11.85;10.73;;;;;;;21.39;60.06;100270.13;4934873;28;20047;-77
2022/09/26 04:25:29;;;;;;;11.82;10.63;;;;;;;21.38;59.97;100263.03;4975514;28;20057;-77
2022/09/26 04:27:56;;;;;;;10.95;10.02;;;;;;;21.38;60.01;100265.72;4993023;28;20409;-77
2022/09/26 04:30:23;;;;;;;11.43;10.23;;;;;;;21.38;59.97;100276.50;4992592;28;20046;-77
2022/09/26 04:32:57;;;;;;;11.60;10.45;;;;;;;21.39;60.02;100271.94;4992633;28;20046;-77
2022/09/26 04:35:26;;;;;;;11.35;10.18;;;;;;;21.38;59.95;100262.19;5006765;28;20045;-77
2022/09/26 04:37:53;;;;;;;11.38;10.02;;;;;;;21.38;59.92;100260.34;5011859;28;20057;-77
2022/09/26 04:40:21;;;;;;;10.57;9.52;;;;;;;21.38;59.88;100246.88;5013563;28;20061;-77
2022/09/26 04:43:14;;;;;;;10.48;9.48;;;;;;;21.38;59.87;100260.34;4993067;28;20402;-77
2022/09/26 04:45:42;;;;;;;10.30;9.30;;;;;;;21.38;59.96;100257.63;5008444;28;20073;-77
2022/09/26 04:48:10;;;;;;;10.88;9.75;;;;;;;21.37;59.86;100258.66;5010408;28;20057;-77
2022/09/26 04:50:54;;;;;;;11.15;10.05;;;;;;;21.37;59.94;100257.81;5008422;28;20402;-77
2022/09/26 04:53:22;;;;;;;13.00;10.50;;;;;;;21.39;59.86;100266.56;4993689;28;20050;-77
2022/09/26 04:56:14;;;;;;;11.43;9.82;;;;;;;21.38;59.88;100263.03;4991351;28;20065;-77
2022/09/26 04:58:43;;;;;;;10.15;9.15;;;;;;;21.37;59.79;100258.66;4994364;28;20039;-77
2022/09/26 05:01:14;;;;;;;10.65;9.65;;;;;;;21.38;59.95;100260.34;5008417;28;20058;-77
2022/09/26 05:03:57;;;;;;;11.15;10.05;;;;;;;21.36;59.84;100259.66;5024435;28;20058;-77
2022/09/26 05:06:26;;;;;;;10.73;9.63;;;;;;;21.38;59.87;100268.41;4992817;28;20062;-77
2022/09/26 05:08:54;;;;;;;11.98;9.70;;;;;;;21.37;59.87;100272.13;4993416;28;20062;-77
2022/09/26 05:11:37;;;;;;;10.93;9.82;;;;;;;21.37;59.75;100257.81;4992254;28;20053;-77
2022/09/26 05:14:09;;;;;;;10.73;9.65;;;;;;;21.37;59.83;100253.28;4991839;28;20058;-77
2022/09/26 05:16:38;;;;;;;9.52;8.63;;;;;;;21.37;59.81;100238.97;4992306;28;20058;-77
2022/09/26 05:19:08;;;;;;;10.07;9.07;;;;;;;21.37;59.79;100237.09;5007975;28;20391;-77
2022/09/26 05:21:42;;;;;;;10.52;9.50;;;;;;;21.37;59.80;100239.81;4992094;28;20050;-77
2022/09/26 05:26:55;;;;;;;10.00;9.15;;;;;;;21.36;59.78;100234.59;4992309;28;20054;-77
2022/09/26 05:29:22;;;;;;;9.80;8.90;;;;;;;21.36;59.77;100238.13;5008139;28;20051;-77
2022/09/26 05:31:53;;;;;;;9.93;8.98;;;;;;;21.37;59.78;100234.41;4991879;28;20054;-77
2022/09/26 05:34:25;;;;;;;9.35;8.45;;;;;;;21.36;59.77;100237.28;4991850;28;20051;-77
2022/09/26 05:36:53;;;;;;;10.45;9.35;;;;;;;21.37;59.75;100252.44;4998159;28;20049;-77
2022/09/26 05:42:14;;;;;;;9.18;8.27;;;;;;;21.37;59.59;100238.97;5017777;28;20060;-77
2022/09/26 05:44:42;;;;;;;9.65;8.68;;;;;;;21.36;59.67;100231.91;5034768;28;20064;-77
2022/09/26 05:47:10;;;;;;;9.65;8.75;;;;;;;21.36;59.60;100229.22;5033810;28;20072;-76
2022/09/26 05:49:38;;;;;;;9.60;8.57;;;;;;;21.37;59.62;100238.97;5033296;28;20436;-77
2022/09/26 05:52:08;;;;;;;10.60;9.50;;;;;;;21.36;59.74;100253.44;5033276;28;20061;-77
2022/09/26 05:54:35;;;;;;;10.10;9.10;;;;;;;21.36;59.58;100259.66;5033910;28;20045;-77
2022/09/26 05:57:14;;;;;;;9.63;8.68;;;;;;;21.36;59.59;100258.81;5052393;28;20500;-76
2022/09/26 05:59:52;;;;;;;9.02;8.23;;;;;;;21.36;59.59;100270.44;5052906;28;20056;-77
2022/09/26 06:02:22;;;;;;;9.90;9.00;;;;;;;21.36;59.60;100256.97;5054290;28;20055;-77
2022/09/26 06:05:08;;;;;;;9.32;8.43;;;;;;;;;;5060616;28;20107;-77
2022/09/26 06:07:47;;;;;;;9.95;8.93;;;;;;;;;;5060216;28;20492;-76
2022/09/26 06:10:31;;;;;;;8.77;7.97;;;;;;;;;;5052876;28;20060;-77
2022/09/26 06:13:02;;;;;;;9.88;8.98;;;;;;;21.36;59.41;100274.97;5036698;28;20452;-76
2022/09/26 06:15:33;;;;;;;9.63;8.63;;;;;;;21.36;59.53;100273.13;5052709;28;20513;-76
2022/09/26 06:18:03;;;;;;;10.52;9.35;;;;;;;21.36;59.59;100270.44;5052931;28;20041;-77
2022/09/26 06:20:32;;;;;;;8.88;7.97;;;;;;;21.36;59.54;100289.28;5012233;28;20046;-76
2022/09/26 06:23:00;;;;;;;10.15;9.15;;;;;;;21.36;59.78;100278.50;5011750;28;20417;-76
2022/09/26 06:25:28;;;;;;;9.13;8.32;;;;;;;21.37;59.56;100279.34;5011768;28;20489;-76
2022/09/26 06:27:58;;;;;;;9.25;8.35;;;;;;;21.37;59.59;100282.88;5013052;28;20053;-76
2022/09/26 06:30:28;;;;;;;8.15;7.38;;;;;;;;;;5011959;28;20049;-76
2022/09/26 06:33:02;;;;;;;10.75;9.65;;;;;;;21.37;59.21;100292.81;5011338;28;20046;-76
2022/09/26 06:36:02;;;;;;;10.50;8.45;;;;;;;21.36;59.00;100307.28;5019646;28;20057;-77
2022/09/26 06:38:50;;;;;;;9.55;8.55;;;;;;;;;;5012991;28;20038;-78
2022/09/26 06:41:18;;;;;;;12.93;10.73;;;;;;;21.33;58.60;100302.22;5011836;28;20042;-79
2022/09/26 06:43:46;;;;;;;15.15;12.32;;;;;;;21.28;58.35;100299.13;5011558;28;20050;-77
2022/09/26 06:46:32;;;;;;;19.45;10.73;;;;;;;21.22;58.39;100293.34;5018882;28;20054;-78
2022/09/26 06:49:14;;;;;;;14.90;11.20;;;;;;;21.18;58.59;100286.59;5010334;28;20058;-78
2022/09/26 06:52:10;;;;;;;12.77;10.00;;;;;;;21.16;58.79;100272.44;5014597;28;20061;-76
2022/09/26 06:54:37;;;;;;;19.05;12.10;;;;;;;21.13;58.40;100282.69;5010163;28;20054;-77
2022/09/26 06:57:04;;;;;;;18.92;12.88;;;;;;;21.07;58.65;100292.25;5010523;28;20046;-77
2022/09/26 06:59:34;;;;;;;21.65;16.08;;;;;;;20.87;59.25;100301.50;5010633;28;20509;-77
2022/09/26 07:02:10;;;;;;;16.85;14.30;;;;;;;20.71;59.43;100305.72;5011947;28;20397;-77
2022/09/26 07:05:02;;;;;;;15.98;12.02;;;;;;;20.65;59.73;100309.00;5009942;28;20054;-77
2022/09/26 07:07:40;;;;;;;14.90;11.27;;;;;;;20.66;59.87;100296.41;5010598;28;20050;-78
2022/09/26 07:10:14;;;;;;;14.23;10.80;;;;;;;20.66;59.61;100289.19;5108829;28;20051;-78
2022/09/26 07:12:52;;;;;;;14.15;11.35;;;;;;;20.70;60.01;100295.97;5054055;28;20050;-78
2022/09/26 07:15:20;;;;;;;17.50;12.05;;;;;;;20.70;60.24;100292.41;5030283;28;20049;-77
2022/09/26 07:17:47;;;;;;;16.15;12.18;;;;;;;20.71;60.17;100286.88;5031263;28;20381;-77
2022/09/26 07:20:31;;;;;;;15.60;12.52;;;;;;;20.72;60.08;100276.97;5031950;28;20049;-77
2022/09/26 07:23:07;;;;;;;15.88;12.27;;;;;;;20.73;60.31;100284.03;5038990;28;20049;-77
2022/09/26 07:25:37;;;;;;;17.30;10.98;;;;;;;20.73;60.25;100287.56;5031019;28;20126;-77
2022/09/26 07:28:06;;;;;;;13.65;10.00;;;;;;;20.74;60.31;100283.91;5030370;28;20515;-77
2022/09/26 07:30:45;;;;;;;13.88;9.38;;;;;;;20.78;60.04;100284.41;5030412;28;20045;-77
2022/09/26 07:33:22;;;;;;;13.60;9.32;;;;;;;20.81;59.81;100299.41;5030668;28;20049;-77
2022/09/26 07:35:51;;;;;;;10.57;8.35;;;;;;;20.83;59.84;100309.03;5030350;28;20050;-77
2022/09/26 07:38:21;;;;;;;12.00;8.45;;;;;;;20.87;59.70;100307.72;5030217;28;20409;-77
2022/09/26 07:40:53;;;;;;;17.20;9.50;;;;;;;20.90;59.73;100293.09;5030050;28;20049;-77
2022/09/26 07:43:21;;;;;;;17.10;11.43;;;;;;;20.90;59.62;100301.16;5030040;28;20053;-78
2022/09/26 07:52:08;;;;;;;10.93;9.48;;;;;;;20.94;59.82;100316.00;5055872;28;20941;-79
2022/09/26 07:55:14;;;;;;;10.38;8.60;;;;;;;20.96;59.81;100328.31;5052872;28;20153;-78
2022/09/26 07:58:00;;;;;;;11.45;7.68;;;;;;;20.98;59.73;100331.69;5035298;28;20049;-77
2022/09/26 08:00:47;;;;;;;12.13;9.27;;;;;;;21.00;59.74;100336.91;5056056;28;20045;-77
2022/09/26 08:03:27;;;;;;;14.18;8.85;;;;;;;21.02;59.72;100331.38;5056240;28;20056;-77
2022/09/26 08:05:59;;;;;;;10.38;8.77;;;;;;;21.02;59.78;100326.00;5056485;28;20072;-77
2022/09/26 08:08:28;;;;;;;9.43;8.43;;;;;;;21.04;59.93;100332.06;5056025;28;20538;-77
2022/09/26 08:10:58;;;;;;;9.93;7.82;;;;;;;21.04;59.81;100319.47;5056146;28;20515;-77
2022/09/26 08:13:36;;;;;;;16.40;9.80;;;;;;;21.05;59.75;100309.53;5063244;28;20049;-77
2022/09/26 08:16:21;;;;;;;10.18;8.45;;;;;;;21.05;59.60;100317.59;5058586;28;20153;-78
2022/09/26 08:18:53;;;;;;;10.02;8.07;;;;;;;21.06;59.57;100312.06;5055662;28;20511;-77
2022/09/26 08:21:21;;;;;;;10.23;7.68;;;;;;;21.07;59.32;100319.16;5055467;28;20045;-77
2022/09/26 08:23:52;;;;;;;12.75;8.48;;;;;;;21.06;58.96;100312.06;5055536;28;20049;-77
2022/09/26 08:26:39;;;;;;;11.02;8.57;;;;;;;21.06;58.97;100313.91;5062477;28;20105;-78
2022/09/26 08:29:16;;;;;;;10.60;7.75;;;;;;;21.06;59.71;100297.75;5034521;28;20053;-77
2022/09/26 08:31:46;;;;;;;9.35;8.32;;;;;;;21.05;60.85;100288.00;5033050;28;20049;-77
2022/09/26 08:34:14;;;;;;;7.57;6.85;;;;;;;21.05;61.07;100288.84;5065473;28;20390;-78
2022/09/26 08:36:51;;;;;;;7.70;6.68;;;;;;;21.07;61.72;100294.09;5032868;28;20131;-77
2022/09/26 08:39:31;;;;;;;8.20;6.75;;;;;;;21.07;62.21;100296.78;5032925;28;20412;-76
2022/09/26 08:42:41;;;;;;;7.03;6.28;;;;;;;21.08;62.31;100296.63;4992580;28;20065;-77
2022/09/26 08:48:53;;;;;;;9.10;5.88;;;;;;;21.09;62.25;100306.38;4992647;28;20050;-76
2022/09/26 08:51:40;;;;;;;8.73;7.80;;;;;;;21.09;61.36;100300.16;4976042;28;20502;-76
2022/09/26 08:54:15;;;;;;;10.80;7.95;;;;;;;21.10;61.79;100299.13;4976783;28;20054;-76
2022/09/26 08:56:50;;;;;;;7.55;6.80;;;;;;;21.11;61.35;100299.00;4976020;28;20050;-77
2022/09/26 08:59:34;;;;;;;7.72;6.57;;;;;;;21.12;62.44;100297.16;4976256;28;20069;-77
2022/09/26 09:02:15;;;;;;;;;;;;;;;21.11;61.77;100290.09;4976837;28;20046;-76
2022/09/26 09:05:06;;;;;;;12.25;8.95;;;;;;;21.10;61.21;100289.22;4976567;28;19934;-77
2022/09/26 09:07:39;;;;;;;12.05;8.95;;;;;;;21.10;61.31;100291.91;4976433;28;20077;-77
2022/09/26 09:10:16;;;;;;;12.18;9.48;;;;;;;21.09;60.83;100292.06;4975145;28;20058;-77
2022/09/26 09:13:22;;;;;;;11.07;9.77;;;;;;;21.08;61.27;100288.53;4992874;28;20058;-77
2022/09/26 09:16:11;;;;;;;8.88;7.95;;;;;;;21.08;62.21;100283.16;4976116;28;20058;-77
2022/09/26 09:19:20;;;;;;;8.23;7.07;;;;;;;21.08;62.41;100280.47;4967929;28;20061;-77
2022/09/26 09:22:26;;;;;;;10.18;8.55;;;;;;;21.10;61.70;100280.31;4976232;28;20054;-77
2022/09/26 09:25:23;;;;;;;10.23;8.38;;;;;;;21.09;61.63;100284.00;4976111;28;20054;-76
2022/09/26 09:28:04;;;;;;;8.45;7.50;;;;;;;21.09;62.19;100276.78;4976072;28;20061;-76
2022/09/26 09:30:58;;;;;;;8.20;6.78;;;;;;;21.09;62.82;100279.47;4992183;28;20409;-77
2022/09/26 09:34:07;;;;;;;10.02;8.95;;;;;;;21.09;62.02;100273.22;4991866;28;20054;-77
2022/09/26 09:36:58;;;;;;;11.18;9.10;;;;;;;21.10;61.98;100269.53;4985383;28;20413;-77
2022/09/26 09:39:48;;;;;;;8.13;7.22;;;;;;;21.09;62.31;100274.06;4992065;28;20533;-77
2022/09/26 09:42:41;;;;;;;10.13;8.50;;;;;;;21.09;62.26;100266.00;4975089;28;20050;-77
2022/09/26 09:45:36;;;;;;;8.07;6.95;;;;;;;21.10;62.54;100267.69;4975415;28;20058;-77
2022/09/26 09:48:08;;;;;;;8.23;6.80;;;;;;;21.10;62.50;100261.47;4976219;28;20050;-76
2022/09/26 09:50:53;;;;;;;10.23;7.72;;;;;;;21.10;62.17;100259.59;5011529;28;20053;-77
2022/09/26 09:53:36;;;;;;;9.48;7.95;;;;;;;21.11;61.04;100257.78;5031441;28;20049;-78
2022/09/26 09:56:06;;;;;;;7.95;6.88;;;;;;;21.10;61.36;100250.69;5030382;28;20049;-77
2022/09/26 09:58:46;;;;;;;9.13;7.43;;;;;;;21.10;61.36;100250.69;5030735;28;20060;-79
2022/09/26 10:01:16;;;;;;;8.13;7.20;;;;;;;21.10;60.08;100256.06;5032219;28;20412;-77
2022/09/26 10:04:05;;;;;;;8.43;6.97;;;;;;;21.09;61.41;100241.78;5032155;28;20057;-76
2022/09/26 10:06:35;;;;;;;7.28;6.50;;;;;;;21.09;61.74;100249.84;5027405;28;20042;-76
2022/09/26 10:09:21;;;;;;;7.45;6.75;;;;;;;21.09;61.48;100243.63;5010995;28;20045;-76
2022/09/26 10:12:29;;;;;;;6.88;6.18;;;;;;;21.09;61.99;100244.47;5019027;28;20065;-76
2022/09/26 10:15:35;;;;;;;8.63;6.50;;;;;;;21.10;62.21;100243.47;4990846;28;20517;-76
2022/09/26 10:18:16;;;;;;;9.00;6.38;;;;;;;21.11;62.71;100249.72;4991591;28;20530;-76
2022/09/26 10:21:17;;;;;;;6.90;5.80;;;;;;;21.10;63.30;100243.47;4992048;28;20069;-76
2022/09/26 10:23:49;;;;;;;7.80;6.53;;;;;;;21.11;62.80;100244.34;4974922;28;20519;-76
2022/09/26 10:26:38;;;;;;;7.85;7.05;;;;;;;21.11;62.23;100236.25;4998370;28;20406;-77
2022/09/26 10:29:33;;;;;;;8.35;6.47;;;;;;;21.10;62.06;100232.69;4973855;28;20057;-76
2022/09/26 10:32:02;;;;;;;9.18;6.53;;;;;;;21.11;62.38;100236.25;4974610;28;20050;-77
2022/09/26 10:34:33;;;;;;;8.00;6.75;;;;;;;21.11;62.48;100228.19;5007028;28;20124;-76
2022/09/26 10:37:28;;;;;;;8.07;7.28;;;;;;;21.11;62.47;100230.88;4991243;28;20054;-76
2022/09/26 10:43:31;;;;;;;8.18;6.35;;;;;;;21.11;62.09;100233.56;4992260;28;20026;-77
2022/09/26 10:46:20;;;;;;;8.40;7.60;;;;;;;21.12;62.15;100232.56;4973637;28;20737;-76
2022/09/26 10:49:13;;;;;;;8.75;7.60;;;;;;;21.12;61.76;100232.56;5001473;28;20107;-77
2022/09/26 10:52:10;;;;;;;8.70;7.82;;;;;;;21.11;62.46;100225.50;5012879;28;20108;-77
2022/09/26 10:54:56;;;;;;;7.40;6.38;;;;;;;21.12;62.81;100213.72;5011261;28;20071;-77
2022/09/26 10:57:44;;;;;;;7.85;6.38;;;;;;;21.13;62.94;100207.31;5012595;28;20042;-77
2022/09/26 11:00:36;;;;;;;7.43;6.72;;;;;;;21.13;62.56;100199.25;5011119;28;20065;-77
2022/09/26 11:03:11;;;;;;;6.97;6.35;;;;;;;21.13;62.47;100199.25;5011066;28;20046;-77
2022/09/26 11:05:59;;;;;;;5.97;5.47;;;;;;;21.13;63.00;100196.56;5012087;28;20505;-77
2022/09/26 11:08:36;;;;;;;5.43;4.93;;;;;;;21.14;62.86;100191.00;5043118;28;20054;-77
2022/09/26 11:11:32;;;;;;;5.63;5.13;;;;;;;21.13;63.13;100192.00;5011040;28;20060;-77
2022/09/26 11:14:08;;;;;;;6.32;5.50;;;;;;;21.15;62.99;100183.78;5010526;28;20061;-76
2022/09/26 11:16:56;;;;;;;5.28;4.78;;;;;;;21.13;62.96;100186.63;5010419;28;20386;-76
2022/09/26 11:19:25;;;;;;;6.97;6.38;;;;;;;21.14;62.56;100180.22;5011016;28;20050;-77
2022/09/26 11:22:10;;;;;;;6.78;6.05;;;;;;;21.13;62.56;100180.41;5010557;28;20061;-77
2022/09/26 11:25:05;;;;;;;7.00;6.20;;;;;;;21.14;62.65;100176.69;5010612;28;20416;-76
2022/09/26 11:27:42;;;;;;;7.55;6.80;;;;;;;21.13;62.15;100164.25;5011056;28;20058;-77
2022/09/26 11:30:20;;;;;;;6.72;5.63;;;;;;;21.14;62.46;100160.56;5009739;28;20501;-77
2022/09/26 11:32:59;;;;;;;7.13;6.18;;;;;;;21.13;62.69;100142.72;5009498;28;20057;-77
2022/09/26 11:35:55;;;;;;;5.95;5.35;;;;;;;21.12;62.72;100141.88;5012486;28;20065;-77
2022/09/26 11:38:45;;;;;;;6.95;5.95;;;;;;;21.14;62.90;100136.34;5012647;28;20054;-76
2022/09/26 11:41:41;;;;;;;5.65;5.15;;;;;;;21.14;62.80;100136.34;5010299;28;20401;-76
2022/09/26 11:44:33;;;;;;;7.35;5.70;;;;;;;21.12;61.69;100128.44;5009546;28;20065;-76
2022/09/26 11:47:37;;;;;;;6.90;5.85;;;;;;;21.13;62.10;100126.56;5011971;28;20042;-76
2022/09/26 11:50:19;;;;;;;5.85;5.25;;;;;;;21.14;62.62;100125.56;5010019;28;20046;-76
2022/09/26 11:53:16;;;;;;;6.63;5.68;;;;;;;21.14;62.85;100121.03;5011157;28;20053;-76
2022/09/26 11:56:14;;;;;;;5.93;5.35;;;;;;;21.14;63.04;100120.19;5010524;28;20041;-76
2022/09/26 11:59:12;;;;;;;5.63;5.00;;;;;;;21.15;63.18;100121.88;5051603;28;20061;-76
2022/09/26 12:02:00;;;;;;;7.25;5.88;;;;;;;21.14;62.64;100117.50;5051089;28;20045;-76
2022/09/26 12:04:59;;;;;;;6.18;5.57;;;;;;;21.13;62.86;100103.19;5050863;28;20057;-76
2022/09/26 12:07:43;;;;;;;6.00;5.40;;;;;;;21.13;62.94;100108.56;5051758;28;20060;-76
2022/09/26 12:10:31;;;;;;;5.65;5.15;;;;;;;21.15;62.98;100100.34;5050661;28;20084;-77
2022/09/26 12:13:13;;;;;;;5.00;4.60;;;;;;;21.15;62.88;100103.06;5051777;28;20080;-76
2022/09/26 12:15:52;;;;;;;4.97;4.47;;;;;;;21.15;62.82;100094.97;5050585;28;20072;-77
2022/09/26 12:18:42;;;;;;;5.78;5.28;;;;;;;21.15;62.29;100086.91;5050525;28;20064;-76
2022/09/26 12:21:09;;;;;;;5.68;4.85;;;;;;;21.15;62.63;100084.22;5050638;28;20056;-76
2022/09/26 12:23:47;;;;;;;5.38;4.88;;;;;;;21.15;62.70;100073.44;5050685;28;20451;-77
2022/09/26 12:26:35;;;;;;;6.65;5.30;;;;;;;21.14;61.96;100058.28;5043608;28;20048;-76
2022/09/26 12:29:35;;;;;;;5.72;5.13;;;;;;;21.14;62.64;100059.13;5034117;28;20417;-76
2022/09/26 12:32:55;;;;;;;6.05;5.55;;;;;;;21.15;62.72;100059.97;5050003;28;20060;-76
2022/09/26 12:35:29;;;;;;;5.63;5.13;;;;;;;21.15;62.68;100060.81;4974369;28;20065;-76